Time;durP1;ratioP1;P1;durP2;ratioP2;P2;SDS_P1;SDS_P2;PMS_P1;PMS_P2;Temp;Humidity;BMP_temperature;BMP_pressure;BME280_temperature;BME280_humidity;BME280_pressure;Samples;Min_cycle;Max_cycle;Signal;HPM_P1;HPM_P2
2021/12/17 00:00:32;;;;;;;18.08;10.20;;;;;;;;;;5035527;28;20030;-70
2021/12/17 00:05:44;;;;;;;19.40;9.88;;;;;;;;;;5035839;28;20494;-69
2021/12/17 00:08:10;;;;;;;17.10;9.60;;;;;;;;;;5035701;28;20544;-69
2021/12/17 00:10:36;;;;;;;16.48;8.98;;;;;;;;;;5034984;28;20057;-69
2021/12/17 00:13:03;;;;;;;19.42;9.48;;;;;;;;;;5035454;28;20025;-69
2021/12/17 00:15:29;;;;;;;17.58;8.65;;;;;;;;;;5035364;28;20053;-69
2021/12/17 00:17:57;;;;;;;16.45;8.25;;;;;;;;;;5034927;28;20022;-69
2021/12/17 00:20:47;;;;;;;17.30;9.32;;;;;;;;;;5035056;28;20061;-70
2021/12/17 00:51:57;;;;;;;15.88;8.35;;;;;;;;;;5032342;28;20046;-69
2021/12/17 00:54:07;;;;;;;15.82;9.30;;;;;;;;;;5028633;28;20029;-69
2021/12/17 00:56:33;;;;;;;17.48;9.05;;;;;;;;;;5034494;28;20014;-70
2021/12/17 00:58:59;;;;;;;14.30;8.35;;;;;;;;;;5034185;28;20108;-69
2021/12/17 01:01:26;;;;;;;15.60;7.47;;;;;;;;;;5034491;28;20021;-70
2021/12/17 01:03:52;;;;;;;16.20;8.02;;;;;;;;;;5034520;28;20037;-69
2021/12/17 01:06:19;;;;;;;16.88;8.93;;;;;;;;;;5034030;28;20064;-69
2021/12/17 01:08:45;;;;;;;18.05;9.18;;;;;;;;;;5034216;28;20029;-70
2021/12/17 01:11:11;;;;;;;17.75;9.15;;;;;;;;;;5034342;28;20034;-69
2021/12/17 01:13:41;;;;;;;14.48;8.45;;;;;;;;;;5034113;28;20493;-70
2021/12/17 01:16:07;;;;;;;18.63;9.73;;;;;;;;;;5034369;28;20021;-71
2021/12/17 01:21:37;;;;;;;15.68;7.45;;;;;;;;;;5032792;28;20030;-70
2021/12/17 01:24:13;;;;;;;13.23;7.90;;;;;;;;;;5034117;28;20033;-69
2021/12/17 01:43:04;;;;;;;12.57;7.50;;;;;;;;;;5034059;28;20381;-69
2021/12/17 01:45:36;;;;;;;14.40;7.88;;;;;;;;;;5032543;28;20422;-69
2021/12/17 01:48:04;;;;;;;12.60;6.45;;;;;;;;;;5033522;28;20022;-70
2021/12/17 01:56:16;;;;;;;14.25;7.45;;;;;;;;;;5033411;28;20476;-69
2021/12/17 02:01:28;;;;;;;13.48;7.18;;;;;;;;;;5033200;28;20087;-70
2021/12/17 02:03:56;;;;;;;14.73;6.90;;;;;;;;;;5032263;28;20033;-69
2021/12/17 02:06:23;;;;;;;12.52;6.90;;;;;;;;;;5033466;28;20036;-69
2021/12/17 02:08:53;;;;;;;15.30;7.70;;;;;;;;;;5033022;28;20509;-69
2021/12/17 02:19:48;;;;;;;12.73;6.40;;;;;;;;;;5033283;28;20506;-69
2021/12/17 02:30:48;;;;;;;11.60;5.97;;;;;;;;;;5032714;28;20496;-69
2021/12/17 02:33:14;;;;;;;12.95;6.80;;;;;;;;;;5033375;28;20025;-69
2021/12/17 02:35:44;;;;;;;11.65;6.30;;;;;;;;;;5033179;28;20022;-69
2021/12/17 02:38:13;;;;;;;10.73;5.60;;;;;;;;;;5032954;28;20017;-69
2021/12/17 02:46:09;;;;;;;14.75;7.28;;;;;;;;;;5034250;28;20505;-69
2021/12/17 02:48:36;;;;;;;14.65;7.25;;;;;;;;;;5036963;28;20026;-69
2021/12/17 02:51:03;;;;;;;11.25;6.00;;;;;;;;;;5036737;28;20032;-69
2021/12/17 02:53:30;;;;;;;15.38;7.47;;;;;;;;;;5037167;28;20049;-70
2021/12/17 02:56:04;;;;;;;11.30;5.97;;;;;;;;;;5036978;28;20389;-69
2021/12/17 02:58:32;;;;;;;14.07;7.30;;;;;;;;;;5036390;28;20515;-69
2021/12/17 03:00:58;;;;;;;12.45;6.63;;;;;;;;;;5037009;28;20037;-69
2021/12/17 03:03:26;;;;;;;12.00;6.57;;;;;;;;;;5035456;28;20025;-69
2021/12/17 03:05:53;;;;;;;11.18;5.75;;;;;;;;;;5036299;28;20038;-69
2021/12/17 03:08:20;;;;;;;11.40;6.57;;;;;;;;;;5036883;28;20022;-69
2021/12/17 03:10:47;;;;;;;14.82;7.45;;;;;;;;;;5036619;28;20079;-70
2021/12/17 03:13:14;;;;;;;13.60;6.85;;;;;;;;;;5036594;28;20462;-69
2021/12/17 03:23:40;;;;;;;12.25;5.72;;;;;;;;;;5035728;28;20077;-69
2021/12/17 03:26:09;;;;;;;9.15;4.82;;;;;;;;;;5036305;28;20021;-69
2021/12/17 03:28:35;;;;;;;10.00;5.68;;;;;;;;;;5036194;28;20102;-70
2021/12/17 03:31:02;;;;;;;11.32;6.15;;;;;;;;;;5036467;28;20113;-69
2021/12/17 03:33:29;;;;;;;12.05;6.10;;;;;;;;;;5034684;28;20029;-69
2021/12/17 03:35:55;;;;;;;10.52;5.05;;;;;;;;;;5036330;28;20026;-70
2021/12/17 03:38:22;;;;;;;9.45;5.55;;;;;;;;;;5036163;28;20029;-69
2021/12/17 03:40:52;;;;;;;11.23;5.90;;;;;;;;;;5035556;28;20105;-70
2021/12/17 03:43:23;;;;;;;9.25;5.03;;;;;;;;;;5036472;28;20112;-70
2021/12/17 03:45:50;;;;;;;8.52;4.80;;;;;;;;;;5036693;28;20502;-69
2021/12/17 03:48:16;;;;;;;10.60;5.20;;;;;;;;;;5035676;28;20025;-69
2021/12/17 03:50:42;;;;;;;15.77;6.25;;;;;;;;;;5035744;28;20029;-68
2021/12/17 03:53:09;;;;;;;12.10;5.95;;;;;;;;;;5036332;28;20203;-68
2021/12/17 03:55:35;;;;;;;9.13;5.10;;;;;;;;;;5035326;28;20544;-68
2021/12/17 03:58:01;;;;;;;10.15;5.82;;;;;;;;;;5035206;28;20026;-68
2021/12/17 04:00:28;;;;;;;12.50;6.10;;;;;;;;;;5035543;28;20022;-68
2021/12/17 04:02:54;;;;;;;10.18;5.78;;;;;;;;;;5035657;28;20029;-68
2021/12/17 04:05:21;;;;;;;9.95;5.13;;;;;;;;;;5035674;28;20156;-68
2021/12/17 04:07:47;;;;;;;9.10;4.93;;;;;;;;;;5034325;28;20018;-69
2021/12/17 04:10:13;;;;;;;9.93;5.40;;;;;;;;;;5035149;28;20032;-69
2021/12/17 04:13:40;;;;;;;10.15;4.97;;;;;;;;;;5035443;28;20482;-68
2021/12/17 04:15:37;;;;;;;9.57;5.10;;;;;;;;;;5034407;28;20034;-68
2021/12/17 04:18:09;;;;;;;10.85;4.93;;;;;;;;;;5035506;28;20021;-68
2021/12/17 04:20:36;;;;;;;10.00;4.68;;;;;;;;;;5035116;28;20587;-69
2021/12/17 04:23:03;;;;;;;9.25;4.93;;;;;;;;;;5034758;28;20038;-68
2021/12/17 04:25:29;;;;;;;12.80;5.03;;;;;;;;;;5034066;28;20022;-69
2021/12/17 04:27:56;;;;;;;10.38;5.72;;;;;;;;;;5035205;28;20101;-68
2021/12/17 04:30:23;;;;;;;10.80;5.10;;;;;;;;;;5034772;28;20072;-68
2021/12/17 04:32:50;;;;;;;9.05;4.53;;;;;;;;;;5034952;28;20099;-68
2021/12/17 04:35:16;;;;;;;9.77;5.60;;;;;;;;;;5035120;28;20029;-69
2021/12/17 04:37:42;;;;;;;9.43;4.68;;;;;;;;;;5033452;28;20029;-68
2021/12/17 04:40:09;;;;;;;9.68;5.25;;;;;;;;;;5035011;28;20024;-69
2021/12/17 04:42:47;;;;;;;9.02;4.93;;;;;;;;;;5034934;28;20507;-68
2021/12/17 04:45:13;;;;;;;10.32;5.38;;;;;;;;;;5034561;28;20034;-69
2021/12/17 04:58:38;;;;;;;10.98;5.85;;;;;;;;;;5034120;28;20045;-68
2021/12/17 05:01:10;;;;;;;11.70;5.30;;;;;;;;;;5034658;28;20029;-68
2021/12/17 05:03:36;;;;;;;9.65;5.63;;;;;;;;;;5034544;28;20029;-69
2021/12/17 05:06:03;;;;;;;10.30;5.05;;;;;;;;;;5034160;28;20017;-70
2021/12/17 05:08:29;;;;;;;10.75;6.18;;;;;;;;;;5033315;28;20496;-70
2021/12/17 05:11:20;;;;;;;10.52;5.75;;;;;;;;;;5033433;28;20144;-69
2021/12/17 05:22:09;;;;;;;9.90;5.57;;;;;;;;;;5032109;28;20021;-68
2021/12/17 05:24:35;;;;;;;10.52;5.68;;;;;;;;;;5032888;28;20139;-68
2021/12/17 05:27:02;;;;;;;9.90;5.88;;;;;;;;;;5033815;28;20022;-68
2021/12/17 05:29:28;;;;;;;9.77;5.68;;;;;;;;;;5034246;28;20025;-68
2021/12/17 05:31:54;;;;;;;12.80;6.43;;;;;;;;;;5033852;28;20474;-67
2021/12/17 05:34:21;;;;;;;12.63;6.35;;;;;;;;;;5033657;28;20026;-68
2021/12/17 05:36:47;;;;;;;11.95;6.03;;;;;;;;;;5033890;28;20022;-67
2021/12/17 05:39:13;;;;;;;13.48;7.22;;;;;;;;;;5033777;28;20096;-68
2021/12/17 05:41:39;;;;;;;12.38;6.13;;;;;;;;;;5033516;28;20025;-68
2021/12/17 05:44:05;;;;;;;15.52;7.55;;;;;;;;;;5033811;28;20037;-68
2021/12/17 05:46:49;;;;;;;14.68;8.00;;;;;;;;;;5033273;28;20510;-68
2021/12/17 05:49:16;;;;;;;17.20;9.27;;;;;;;;;;5034003;28;20021;-68
2021/12/17 05:51:42;;;;;;;17.20;8.52;;;;;;;;;;5033739;28;20029;-68
2021/12/17 05:54:08;;;;;;;13.70;7.88;;;;;;;;;;5032072;28;20463;-68
2021/12/17 05:56:34;;;;;;;13.80;7.40;;;;;;;;;;5033438;28;20025;-67
2021/12/17 05:59:00;;;;;;;17.25;8.77;;;;;;;;;;5033570;28;20030;-67
2021/12/17 06:01:27;;;;;;;14.57;8.32;;;;;;;;;;5033064;28;20476;-67
2021/12/17 06:03:53;;;;;;;19.73;10.40;;;;;;;;;;5031578;28;20486;-66
2021/12/17 06:06:29;;;;;;;16.05;7.22;;;;;;;;;;5031157;28;20431;-68
2021/12/17 06:08:56;;;;;;;14.30;8.30;;;;;;;;;;5032632;28;20038;-67
2021/12/17 06:11:22;;;;;;;15.57;7.63;;;;;;;;;;5033167;28;20519;-67
2021/12/17 06:13:48;;;;;;;27.58;12.95;;;;;;;;;;5032868;28;20034;-67
2021/12/17 06:16:14;;;;;;;34.92;18.67;;;;;;;;;;5032912;28;20021;-67
2021/12/17 06:18:41;;;;;;;21.33;12.68;;;;;;;;;;5032887;28;20052;-68
2021/12/17 06:21:07;;;;;;;19.48;10.80;;;;;;;;;;5032987;28;20022;-67
2021/12/17 06:23:33;;;;;;;30.42;13.98;;;;;;;;;;5030906;28;20033;-66
2021/12/17 06:25:59;;;;;;;23.83;12.40;;;;;;;;;;5030949;28;20033;-66
2021/12/17 06:28:25;;;;;;;21.15;12.63;;;;;;;;;;5034143;28;20109;-67
2021/12/17 06:30:52;;;;;;;24.30;14.13;;;;;;;;;;5012231;28;20038;-67
2021/12/17 06:33:18;;;;;;;31.75;16.92;;;;;;;;;;5013577;28;20478;-67
2021/12/17 06:35:44;;;;;;;29.08;15.93;;;;;;;;;;5013314;28;20061;-68
2021/12/17 06:38:10;;;;;;;20.88;11.07;;;;;;;;;;5026498;28;20026;-67
2021/12/17 06:40:36;;;;;;;17.85;9.15;;;;;;;;;;5015950;28;20022;-67
2021/12/17 06:43:03;;;;;;;15.27;8.80;;;;;;;;;;5013106;28;20048;-66
2021/12/17 06:45:49;;;;;;;17.15;9.82;;;;;;;;;;5013471;28;20026;-66
2021/12/17 06:48:20;;;;;;;15.93;8.10;;;;;;;;;;5013250;28;20018;-67
2021/12/17 07:17:24;;;;;;;18.10;10.38;;;;;;;;;;5013336;28;20036;-68
2021/12/17 07:31:53;;;;;;;20.20;9.68;;;;;;;;;;5029300;28;20107;-67
2021/12/17 07:33:21;;;;;;;14.38;8.70;;;;;;;;;;5032506;28;20470;-68
2021/12/17 07:35:52;;;;;;;15.23;8.55;;;;;;;;;;5035808;28;20386;-69
2021/12/17 07:41:01;;;;;;;14.57;8.80;;;;;;;;;;5035475;28;20436;-68
2021/12/17 07:44:13;;;;;;;14.85;9.15;;;;;;;;;;5035162;28;20113;-68
2021/12/17 07:46:14;;;;;;;16.45;9.27;;;;;;;;;;5030813;28;20438;-68
2021/12/17 07:48:40;;;;;;;18.63;9.43;;;;;;;;;;5031286;28;20056;-68
2021/12/17 07:51:08;;;;;;;17.27;9.07;;;;;;;;;;5035193;28;20056;-67
2021/12/17 07:53:35;;;;;;;15.90;9.20;;;;;;;;;;5034460;28;20033;-66
2021/12/17 07:56:08;;;;;;;18.02;9.20;;;;;;;;;;5034189;28;20030;-67
2021/12/17 07:58:34;;;;;;;;;;;;;;;;;;5034041;28;20025;-68
2021/12/17 08:01:00;;;;;;;17.95;10.88;;;;;;;;;;5034831;28;19905;-68
2021/12/17 08:03:27;;;;;;;20.00;11.50;;;;;;;;;;5034353;28;20032;-66
2021/12/17 08:05:54;;;;;;;18.50;10.73;;;;;;;;;;5033441;28;20065;-67
2021/12/17 08:08:21;;;;;;;15.45;9.45;;;;;;;;;;5034985;28;20470;-68
2021/12/17 08:10:47;;;;;;;15.65;8.20;;;;;;;;;;5034355;28;20029;-67
2021/12/17 08:13:20;;;;;;;14.13;7.50;;;;;;;;;;5034606;28;20018;-67
2021/12/17 08:16:31;;;;;;;12.95;8.40;;;;;;;;;;5034962;28;20382;-66
2021/12/17 08:32:31;;;;;;;14.20;8.43;;;;;;;;;;5014146;28;20141;-68
2021/12/17 08:34:57;;;;;;;17.88;10.07;;;;;;;;;;5029581;28;20116;-66
2021/12/17 08:37:24;;;;;;;17.58;10.93;;;;;;;;;;5020698;28;20030;-66
2021/12/17 08:39:50;;;;;;;10.27;5.43;;;;;;;;;;5032327;28;20028;-66
2021/12/17 08:42:16;;;;;;;9.52;5.22;;;;;;;;;;5031438;28;20060;-65
2021/12/17 08:44:42;;;;;;;13.35;5.82;;;;;;;;;;5032415;28;20037;-67
2021/12/17 08:47:10;;;;;;;11.60;6.32;;;;;;;;;;5034442;28;20024;-65
2021/12/17 08:49:40;;;;;;;15.07;7.82;;;;;;;;;;5033537;28;20355;-67
2021/12/17 08:52:06;;;;;;;12.05;6.40;;;;;;;;;;5033787;28;20017;-66
2021/12/17 08:54:32;;;;;;;11.77;6.50;;;;;;;;;;5031885;28;20032;-67
2021/12/17 08:56:58;;;;;;;11.57;4.20;;;;;;;;;;5032398;28;20474;-67
2021/12/17 08:59:27;;;;;;;7.97;4.25;;;;;;;;;;5030492;28;20021;-68
2021/12/17 09:01:53;;;;;;;11.65;6.20;;;;;;;;;;5020303;28;20462;-65
2021/12/17 09:04:19;;;;;;;9.77;6.07;;;;;;;;;;5011625;28;20044;-68
2021/12/17 09:06:45;;;;;;;10.98;6.00;;;;;;;;;;5027660;28;20030;-67
2021/12/17 09:09:17;;;;;;;11.30;6.13;;;;;;;;;;5013240;28;20064;-67
2021/12/17 09:11:43;;;;;;;17.70;7.93;;;;;;;;;;5013717;28;20022;-68
2021/12/17 09:14:09;;;;;;;11.25;5.68;;;;;;;;;;5014250;28;20105;-69
2021/12/17 09:16:36;;;;;;;8.90;4.78;;;;;;;;;;5033375;28;20067;-67
2021/12/17 09:19:03;;;;;;;14.45;7.15;;;;;;;;;;5033076;28;20043;-66
2021/12/17 09:21:30;;;;;;;12.85;6.47;;;;;;;;;;5033387;28;20033;-67
2021/12/17 09:23:56;;;;;;;12.00;6.40;;;;;;;;;;5033829;28;20038;-67
2021/12/17 09:26:22;;;;;;;15.45;7.78;;;;;;;;;;5033497;28;20057;-67
2021/12/17 09:28:50;;;;;;;16.27;7.95;;;;;;;;;;5031498;28;20033;-68
2021/12/17 09:31:16;;;;;;;11.88;6.38;;;;;;;;;;5029545;28;20734;-66
2021/12/17 09:33:43;;;;;;;17.67;7.03;;;;;;;;;;5026518;28;20053;-68
2021/12/17 09:36:10;;;;;;;10.70;5.43;;;;;;;;;;5010630;28;20030;-67
2021/12/17 09:38:36;;;;;;;9.98;4.93;;;;;;;;;;5011203;28;20022;-68
2021/12/17 09:41:02;;;;;;;9.18;5.28;;;;;;;;;;5011406;28;20029;-66
2021/12/17 09:43:29;;;;;;;11.50;5.75;;;;;;;;;;5009935;28;20026;-69
2021/12/17 09:45:56;;;;;;;16.67;7.72;;;;;;;;;;5011935;28;20109;-67
2021/12/17 09:48:27;;;;;;;10.63;5.60;;;;;;;;;;5024137;28;20470;-67
2021/12/17 09:50:54;;;;;;;17.42;7.28;;;;;;;;;;5029742;28;20029;-64
2021/12/17 09:53:21;;;;;;;10.18;5.20;;;;;;;;;;5031939;28;20029;-66
2021/12/17 09:55:47;;;;;;;10.32;5.20;;;;;;;;;;5028655;28;20104;-64
2021/12/17 09:58:14;;;;;;;9.20;5.32;;;;;;;;;;5031256;28;20101;-64
2021/12/17 10:00:40;;;;;;;11.10;5.65;;;;;;;;;;5028656;28;20080;-63
2021/12/17 10:03:08;;;;;;;11.68;5.78;;;;;;;;;;5029863;28;20025;-64
2021/12/17 10:05:48;;;;;;;10.25;5.85;;;;;;;;;;5017344;28;20042;-67
2021/12/17 10:08:17;;;;;;;7.80;4.68;;;;;;;;;;5026074;28;20419;-69
2021/12/17 10:10:45;;;;;;;9.55;5.30;;;;;;;;;;5031432;28;20025;-71
2021/12/17 10:13:11;;;;;;;11.52;6.70;;;;;;;;;;5032000;28;20025;-70
2021/12/17 10:15:39;;;;;;;9.60;4.88;;;;;;;;;;5031279;28;20052;-69
2021/12/17 10:18:05;;;;;;;10.65;5.00;;;;;;;;;;5029963;28;20026;-70
2021/12/17 10:20:35;;;;;;;7.57;4.13;;;;;;;;;;5029269;28;20050;-68
2021/12/17 10:23:04;;;;;;;6.63;3.53;;;;;;;;;;5030096;28;20079;-70
2021/12/17 10:25:30;;;;;;;9.00;4.82;;;;;;;;;;5029896;28;20076;-69
2021/12/17 10:27:59;;;;;;;8.25;4.22;;;;;;;;;;5029923;28;20482;-70
2021/12/17 10:30:26;;;;;;;7.82;3.00;;;;;;;;;;5030341;28;20017;-69
2021/12/17 10:35:32;;;;;;;7.00;3.88;;;;;;;;;;5109357;27;20385;-70
2021/12/17 10:38:05;;;;;;;13.48;6.57;;;;;;;;;;5105622;28;20040;-69
2021/12/17 10:40:35;;;;;;;13.02;6.75;;;;;;;;;;5106935;28;20032;-69
2021/12/17 10:43:07;;;;;;;8.73;4.53;;;;;;;;;;5105385;28;20092;-69
2021/12/17 10:45:35;;;;;;;11.63;5.70;;;;;;;;;;5102546;28;20024;-70
2021/12/17 10:48:49;;;;;;;11.30;4.97;;;;;;;;;;5108848;28;20432;-70
2021/12/17 10:51:27;;;;;;;11.38;5.22;;;;;;;;;;5104591;28;20019;-69
2021/12/17 10:53:55;;;;;;;11.77;6.20;;;;;;;;;;5105451;28;20512;-71
2021/12/17 10:56:26;;;;;;;9.55;4.45;;;;;;;;;;5105279;28;20027;-69
2021/12/17 10:58:57;;;;;;;10.80;5.30;;;;;;;;;;5104623;28;20024;-69
2021/12/17 11:01:31;;;;;;;5.35;2.95;;;;;;;;;;5106288;28;20024;-70
2021/12/17 11:04:04;;;;;;;5.95;3.33;;;;;;;;;;5095249;28;20013;-74
2021/12/17 11:06:43;;;;;;;6.90;3.55;;;;;;;;;;5088673;28;20490;-72
2021/12/17 11:09:09;;;;;;;9.27;5.30;;;;;;;;;;5100529;28;20084;-72
2021/12/17 11:11:41;;;;;;;12.10;6.38;;;;;;;;;;5109024;28;20383;-72
2021/12/17 11:14:07;;;;;;;12.07;7.00;;;;;;;;;;5109677;28;20039;-73
2021/12/17 11:16:33;;;;;;;16.67;7.85;;;;;;;;;;5109795;28;20387;-70
2021/12/17 11:18:59;;;;;;;17.15;9.07;;;;;;;;;;5109469;28;20379;-69
2021/12/17 11:21:26;;;;;;;12.10;6.25;;;;;;;;;;5109846;28;20016;-69
2021/12/17 11:23:52;;;;;;;12.00;6.40;;;;;;;;;;5109701;28;20047;-71
2021/12/17 11:26:18;;;;;;;11.98;5.70;;;;;;;;;;5109553;28;20491;-71
2021/12/17 11:28:46;;;;;;;14.77;6.88;;;;;;;;;;5108908;28;20031;-73
2021/12/17 11:31:12;;;;;;;21.13;10.40;;;;;;;;;;5109295;28;20016;-72
2021/12/17 11:33:39;;;;;;;12.63;6.60;;;;;;;;;;5109619;28;20500;-70
2021/12/17 11:36:05;;;;;;;10.13;5.35;;;;;;;;;;5109508;28;20106;-70
2021/12/17 11:38:48;;;;;;;12.63;5.32;;;;;;;;;;5109010;28;20024;-71
2021/12/17 11:41:16;;;;;;;14.65;6.90;;;;;;;;;;5109905;28;20020;-69
2021/12/17 11:43:58;;;;;;;14.90;7.13;;;;;;;;;;5109527;28;20024;-70
2021/12/17 11:46:31;;;;;;;11.48;6.13;;;;;;;;;;5097590;28;20020;-70
2021/12/17 11:48:59;;;;;;;13.40;5.93;;;;;;;;;;5096155;28;20020;-71
2021/12/17 11:51:27;;;;;;;14.65;8.07;;;;;;;;;;5095910;28;20414;-70
2021/12/17 11:53:54;;;;;;;11.90;6.50;;;;;;;;;;5095185;28;20038;-72
2021/12/17 11:56:47;;;;;;;14.65;10.50;;;;;;;;;;5095770;28;20099;-71
2021/12/17 11:59:26;;;;;;;12.82;7.30;;;;;;;;;;5091925;28;20378;-69
2021/12/17 12:01:55;;;;;;;10.13;5.28;;;;;;;;;;5095351;28;20074;-71
2021/12/17 12:04:26;;;;;;;20.58;7.88;;;;;;;;;;5095367;28;20055;-71
2021/12/17 12:07:01;;;;;;;18.73;11.40;;;;;;;;;;5094845;28;20035;-69
2021/12/17 12:09:46;;;;;;;24.23;11.32;;;;;;;;;;5095751;28;20031;-70
2021/12/17 12:12:12;;;;;;;21.25;10.35;;;;;;;;;;5095605;28;20103;-70
2021/12/17 12:14:39;;;;;;;21.35;11.85;;;;;;;;;;5094966;28;20111;-71
2021/12/17 12:17:05;;;;;;;16.90;9.50;;;;;;;;;;5094078;28;20024;-69
2021/12/17 12:19:50;;;;;;;17.63;9.85;;;;;;;;;;5095187;28;20021;-72
2021/12/17 12:22:29;;;;;;;18.92;10.68;;;;;;;;;;5094863;28;20106;-70
2021/12/17 12:25:14;;;;;;;16.02;8.25;;;;;;;;;;5090831;28;20388;-70
2021/12/17 12:27:46;;;;;;;18.25;10.98;;;;;;;;;;5094377;28;20073;-70
2021/12/17 12:30:14;;;;;;;14.23;8.70;;;;;;;;;;5094644;28;20024;-69
2021/12/17 12:32:58;;;;;;;13.88;6.47;;;;;;;;;;5094664;28;20035;-71
2021/12/17 12:35:25;;;;;;;15.50;9.38;;;;;;;;;;5094494;28;20056;-72
2021/12/17 12:38:11;;;;;;;10.73;6.15;;;;;;;;;;5094987;28;20028;-69
2021/12/17 12:40:44;;;;;;;11.15;5.85;;;;;;;;;;5092890;28;20024;-68
2021/12/17 12:43:25;;;;;;;11.00;6.30;;;;;;;;;;5094324;28;20047;-70
2021/12/17 12:45:51;;;;;;;10.85;5.13;;;;;;;;;;5094969;28;20461;-68
2021/12/17 12:48:31;;;;;;;11.38;5.45;;;;;;;;;;5094806;28;20024;-69
2021/12/17 12:51:13;;;;;;;10.38;5.95;;;;;;;;;;5094957;28;20047;-72
2021/12/17 12:53:39;;;;;;;8.90;4.68;;;;;;;;;;5094781;28;20028;-69
2021/12/17 12:56:08;;;;;;;13.73;7.50;;;;;;;;;;5094316;28;20077;-71
2021/12/17 12:58:37;;;;;;;16.33;8.20;;;;;;;;;;5093664;28;20375;-69
2021/12/17 13:01:06;;;;;;;25.33;10.07;;;;;;;;;;5094576;28;20076;-71
2021/12/17 13:03:37;;;;;;;8.40;4.13;;;;;;;;;;5094245;28;20031;-71
2021/12/17 13:06:03;;;;;;;10.05;5.80;;;;;;;;;;5094556;28;20036;-71
2021/12/17 13:08:33;;;;;;;10.63;5.97;;;;;;;;;;5094534;28;20047;-69
2021/12/17 13:11:03;;;;;;;15.90;8.43;;;;;;;;;;5094023;28;20544;-68
2021/12/17 13:13:35;;;;;;;14.85;6.85;;;;;;;;;;5093593;28;20124;-69
2021/12/17 13:16:23;;;;;;;14.10;7.82;;;;;;;;;;5094220;28;20016;-71
2021/12/17 13:21:44;;;;;;;25.90;13.25;;;;;;;;;;5094118;28;20070;-69
2021/12/17 13:24:19;;;;;;;12.65;7.97;;;;;;;;;;5093487;28;20060;-68
2021/12/17 13:26:50;;;;;;;12.40;6.82;;;;;;;;;;5094000;28;20044;-68
2021/12/17 13:29:19;;;;;;;16.27;8.35;;;;;;;;;;5093683;28;20035;-69
2021/12/17 13:31:50;;;;;;;12.80;8.25;;;;;;;;;;5093636;28;20032;-70
2021/12/17 13:34:20;;;;;;;25.73;12.98;;;;;;;;;;5093364;28;20094;-67
2021/12/17 13:36:57;;;;;;;23.67;14.23;;;;;;;;;;5093784;28;20024;-70
2021/12/17 13:39:25;;;;;;;17.30;9.90;;;;;;;;;;5093465;28;20030;-71
2021/12/17 13:41:51;;;;;;;22.75;11.05;;;;;;;;;;5093924;28;20020;-70
2021/12/17 13:44:44;;;;;;;13.20;7.40;;;;;;;;;;5093815;28;20365;-68
2021/12/17 13:47:29;;;;;;;10.13;6.00;;;;;;;;;;5090005;28;20028;-71
2021/12/17 13:50:13;;;;;;;16.25;8.68;;;;;;;;;;5093684;28;20485;-73
2021/12/17 13:52:39;;;;;;;;;;;;;;;;;;5093791;28;20024;-71
2021/12/17 13:55:07;;;;;;;14.18;8.25;;;;;;;;;;5093825;28;19912;-73
2021/12/17 13:57:33;;;;;;;16.70;8.82;;;;;;;;;;5093502;28;20388;-72
2021/12/17 14:00:14;;;;;;;18.77;9.43;;;;;;;;;;5092675;28;20031;-72
2021/12/17 14:02:42;;;;;;;18.88;8.60;;;;;;;;;;5093571;28;20105;-72
2021/12/17 14:05:08;;;;;;;16.60;9.18;;;;;;;;;;5094081;28;20429;-71
2021/12/17 14:07:35;;;;;;;17.02;10.48;;;;;;;;;;5091863;28;20020;-71
2021/12/17 14:10:01;;;;;;;25.23;12.90;;;;;;;;;;5093244;28;20020;-71
2021/12/17 14:12:33;;;;;;;17.38;10.75;;;;;;;;;;5093664;28;20099;-73
2021/12/17 14:15:00;;;;;;;22.13;10.73;;;;;;;;;;5093267;28;20032;-71
2021/12/17 14:17:32;;;;;;;19.88;10.95;;;;;;;;;;5093533;28;20031;-73
2021/12/17 14:20:02;;;;;;;18.20;9.77;;;;;;;;;;5092733;28;20431;-72
2021/12/17 14:22:33;;;;;;;23.75;13.05;;;;;;;;;;5093050;28;20022;-72
2021/12/17 14:24:59;;;;;;;25.65;13.95;;;;;;;;;;5093729;28;20098;-72
2021/12/17 14:27:42;;;;;;;19.42;12.45;;;;;;;;;;5091800;28;20028;-72
2021/12/17 14:30:09;;;;;;;19.73;12.05;;;;;;;;;;5093566;28;20472;-72
2021/12/17 14:32:39;;;;;;;17.65;9.27;;;;;;;;;;5093093;28;20020;-71
2021/12/17 14:35:06;;;;;;;19.33;11.77;;;;;;;;;;5092721;28;20056;-69
2021/12/17 14:37:45;;;;;;;22.80;12.35;;;;;;;;;;5093290;28;20047;-69
2021/12/17 14:40:31;;;;;;;11.68;7.10;;;;;;;;;;5089991;28;20019;-70
2021/12/17 14:42:58;;;;;;;12.65;8.07;;;;;;;;;;5092515;28;20078;-68
2021/12/17 14:45:42;;;;;;;24.05;14.43;;;;;;;;;;5093376;28;20531;-70
2021/12/17 14:48:15;;;;;;;17.55;9.35;;;;;;;;;;5092878;28;20031;-71
2021/12/17 15:01:42;;;;;;;12.65;7.25;;;;;;;;;;5091103;28;20108;-70
2021/12/17 15:04:09;;;;;;;11.70;6.80;;;;;;;;;;5091628;28;20491;-69
2021/12/17 15:06:35;;;;;;;15.48;10.18;;;;;;;;;;5092349;28;20031;-71
2021/12/17 15:09:02;;;;;;;10.48;6.20;;;;;;;;;;5093100;28;20077;-71
2021/12/17 15:11:36;;;;;;;13.35;7.05;;;;;;;;;;5092681;28;20492;-71
2021/12/17 15:14:02;;;;;;;12.55;7.18;;;;;;;;;;5093011;28;20073;-71
2021/12/17 15:16:28;;;;;;;26.45;14.52;;;;;;;;;;5092446;28;20488;-71
2021/12/17 15:18:55;;;;;;;16.60;9.38;;;;;;;;;;5091417;28;20485;-71
2021/12/17 15:21:21;;;;;;;16.35;8.10;;;;;;;;;;5095099;28;20117;-72
2021/12/17 15:23:47;;;;;;;10.48;5.90;;;;;;;;;;5096321;28;20387;-72
2021/12/17 15:26:13;;;;;;;10.93;6.30;;;;;;;;;;5096614;28;20085;-72
2021/12/17 15:28:39;;;;;;;10.23;5.70;;;;;;;;;;5096422;28;20457;-72
2021/12/17 15:31:06;;;;;;;14.02;7.43;;;;;;;;;;5096464;28;20044;-70
2021/12/17 15:33:34;;;;;;;10.25;5.78;;;;;;;;;;5095962;28;20044;-67
2021/12/17 15:36:00;;;;;;;10.00;6.30;;;;;;;;;;5096538;28;20464;-70
2021/12/17 15:38:26;;;;;;;16.88;9.75;;;;;;;;;;5095979;28;20099;-71
2021/12/17 15:40:53;;;;;;;21.88;11.60;;;;;;;;;;5096379;28;20028;-70
2021/12/17 15:43:20;;;;;;;15.43;8.20;;;;;;;;;;5096408;28;20020;-70
2021/12/17 15:45:47;;;;;;;13.43;7.78;;;;;;;;;;5095918;28;20480;-70
2021/12/17 15:48:14;;;;;;;16.75;9.40;;;;;;;;;;5095085;28;20426;-70
2021/12/17 15:50:41;;;;;;;13.93;7.90;;;;;;;;;;5095994;28;20028;-70
2021/12/17 15:53:07;;;;;;;12.27;6.68;;;;;;;;;;5095904;28;20027;-70
2021/12/17 15:55:34;;;;;;;13.95;7.43;;;;;;;;;;5096051;28;20104;-71
2021/12/17 15:58:01;;;;;;;14.70;8.73;;;;;;;;;;5094791;28;20012;-70
2021/12/17 16:00:32;;;;;;;14.10;8.18;;;;;;;;;;5093241;28;20016;-70
2021/12/17 16:02:58;;;;;;;20.88;10.73;;;;;;;;;;5091224;28;20012;-70
2021/12/17 16:05:25;;;;;;;14.50;7.65;;;;;;;;;;5095935;28;20031;-70
2021/12/17 16:07:53;;;;;;;14.48;8.15;;;;;;;;;;5095875;28;20490;-72
2021/12/17 16:18:43;;;;;;;11.55;6.70;;;;;;;;;;5095873;28;20089;-71
2021/12/17 16:21:10;;;;;;;11.40;6.13;;;;;;;;;;5092500;28;20028;-71
2021/12/17 16:23:39;;;;;;;14.45;8.52;;;;;;;;;;5094492;28;20032;-70
2021/12/17 16:26:06;;;;;;;11.55;6.05;;;;;;;;;;5095518;28;20016;-70
2021/12/17 16:28:33;;;;;;;9.95;6.15;;;;;;;;;;5094925;28;20031;-71
2021/12/17 16:31:13;;;;;;;17.95;9.93;;;;;;;;;;5095266;28;20032;-70
2021/12/17 16:33:40;;;;;;;11.30;6.82;;;;;;;;;;5094946;28;20241;-70
2021/12/17 16:36:07;;;;;;;9.55;5.57;;;;;;;;;;5094093;28;20028;-69
2021/12/17 16:38:34;;;;;;;12.85;6.65;;;;;;;;;;5095286;28;20091;-71
2021/12/17 16:41:01;;;;;;;10.63;6.53;;;;;;;;;;5095130;28;20042;-70
2021/12/17 16:43:27;;;;;;;14.90;8.98;;;;;;;;;;5095459;28;20024;-70
2021/12/17 16:46:10;;;;;;;22.70;11.18;;;;;;;;;;5095217;28;20031;-71
2021/12/17 16:48:38;;;;;;;12.10;6.63;;;;;;;;;;5092510;28;20028;-69
2021/12/17 16:51:05;;;;;;;16.15;10.95;;;;;;;;;;5095127;28;20020;-69
2021/12/17 16:53:31;;;;;;;12.00;7.35;;;;;;;;;;5095268;28;20116;-71
2021/12/17 16:55:57;;;;;;;9.95;5.30;;;;;;;;;;5093234;28;20495;-70
2021/12/17 16:58:24;;;;;;;10.77;6.80;;;;;;;;;;5094944;28;20031;-70
2021/12/17 17:00:51;;;;;;;9.80;5.38;;;;;;;;;;5094617;28;20459;-70
2021/12/17 17:03:17;;;;;;;10.98;5.53;;;;;;;;;;5094410;28;20024;-70
2021/12/17 17:05:44;;;;;;;8.13;5.22;;;;;;;;;;5094630;28;20028;-70
2021/12/17 17:08:11;;;;;;;13.48;7.47;;;;;;;;;;5094530;28;20091;-71
2021/12/17 17:10:38;;;;;;;13.52;7.20;;;;;;;;;;5094130;28;20115;-71
2021/12/17 17:13:05;;;;;;;18.77;10.10;;;;;;;;;;5094518;28;20020;-71
2021/12/17 17:15:35;;;;;;;20.33;11.15;;;;;;;;;;5094470;28;20054;-71
2021/12/17 17:18:06;;;;;;;14.10;9.35;;;;;;;;;;5094080;28;20023;-69
2021/12/17 17:20:33;;;;;;;15.23;7.78;;;;;;;;;;5094403;28;20466;-70
2021/12/17 17:23:00;;;;;;;31.20;14.90;;;;;;;;;;5093967;28;20024;-70
2021/12/17 17:25:26;;;;;;;16.08;9.57;;;;;;;;;;5094634;28;20020;-70
2021/12/17 17:27:53;;;;;;;13.10;6.97;;;;;;;;;;5094366;28;20052;-70
2021/12/17 17:30:19;;;;;;;16.33;8.95;;;;;;;;;;5093969;28;20080;-70
2021/12/17 17:32:45;;;;;;;19.13;10.60;;;;;;;;;;5093341;28;20031;-70
2021/12/17 17:35:12;;;;;;;16.20;9.35;;;;;;;;;;5093937;28;20044;-69
2021/12/17 17:37:39;;;;;;;14.82;8.50;;;;;;;;;;5092525;28;20024;-69
2021/12/17 17:40:06;;;;;;;17.85;9.30;;;;;;;;;;5093982;28;20035;-71
2021/12/17 17:42:32;;;;;;;16.23;8.55;;;;;;;;;;5093775;28;20016;-70
2021/12/17 17:44:58;;;;;;;13.02;8.23;;;;;;;;;;5093224;28;20035;-70
2021/12/17 17:47:25;;;;;;;15.57;8.23;;;;;;;;;;5094220;28;20020;-70
2021/12/17 17:49:51;;;;;;;15.88;10.02;;;;;;;;;;5092781;28;20031;-70